28. Mai 2022

Uhrzeit Code Wetter Temp. Sichtweite Wolkendecke Wind METAR/SPECI
5:55 pm
V
54 °F 6¼ mi+ - 320° 320° 26 kt METAR EHMA 281555Z AUTO 32026KT 9999 FEW022 12/06 Q1019
5:25 pm
V
52 °F 6¼ mi+ - 320° 320° 25 kt METAR EHMA 281525Z AUTO 32025KT 9999 FEW023 SCT029 11/05 Q1019
4:55 pm
V
52 °F 6¼ mi+ - 310° 310° 25 kt METAR EHMA 281455Z AUTO 31025KT 9999 FEW020 SCT025 11/06 Q1019
4:25 pm
V
52 °F 6¼ mi+ 4.400 ft 310° 310° 25 kt METAR EHMA 281425Z AUTO 31025KT 9999 FEW019 SCT023 BKN044 11/06 Q1019
3:55 pm
V
52 °F 6¼ mi+ 3.900 ft 310° 310° 26 kt METAR EHMA 281355Z AUTO 31026KT 9999 FEW021 SCT034 BKN039 11/06 Q1020
3:25 pm
V
52 °F 6¼ mi+ 4.300 ft 310° 310° 28 kt METAR EHMA 281325Z AUTO 31028KT 9999 -RA FEW022 SCT032 BKN043 11/07 Q1020
2:55 pm
V
54 °F 6¼ mi+ 4.800 ft 310° 310° 24 kt METAR EHMA 281255Z AUTO 31024KT 9999 FEW023 SCT039 BKN048 12/05 Q1020
2:25 pm
V
52 °F 6¼ mi+ 4.700 ft 310° 310° 24 kt METAR EHMA 281225Z AUTO 31024KT 9999 SCT023 SCT027 BKN047 11/05 Q1020
1:55 pm
V
54 °F 6¼ mi+ 4.700 ft 310° 310° 26 kt METAR EHMA 281155Z AUTO 31026KT 9999 FEW019 SCT024 BKN047 12/06 Q1020
1:25 pm
V
54 °F 6¼ mi+ 4.700 ft 310° 310° 25 kt METAR EHMA 281125Z AUTO 31025KT 9999 FEW018 SCT022 BKN047 12/07 Q1020
12:55 pm
M
52 °F 6¼ mi+ 2.800 ft 310° 310° 26 kt METAR EHMA 281055Z AUTO 31026KT 9999 FEW018 SCT022 BKN028 11/06 Q1020
12:25 pm
V
54 °F 6¼ mi+ - 310° 310° 23 kt METAR EHMA 281025Z AUTO 31023KT 9999 FEW020 SCT026 12/06 Q1020
11:55 am
V
52 °F 6¼ mi+ 4.200 ft 320° 320° 23 kt METAR EHMA 280955Z AUTO 32023KT 9999 FEW021 SCT030 BKN042 11/05 Q1020
11:25 am
V
52 °F 6¼ mi+ 4.300 ft 320° 320° 25 kt METAR EHMA 280925Z AUTO 32025KT 9999 FEW019 SCT029 BKN043 11/06 Q1020
10:55 am
V
52 °F 6¼ mi+ 4.500 ft 320° 320° 27 kt METAR EHMA 280855Z AUTO 32027KT 9999 FEW021 SCT025 BKN045 11/06 Q1019
10:25 am
V
52 °F 6¼ mi+ 3.300 ft 330° 330° 27 kt METAR EHMA 280825Z AUTO 33027KT 9999 FEW019 SCT022 BKN033 11/06 Q1019
9:55 am
M
52 °F 6¼ mi+ 2.500 ft 310° 310° 26 kt METAR EHMA 280755Z AUTO 31026KT 9999 FEW018 SCT021 BKN025 11/07 Q1019
9:25 am
V
52 °F 6¼ mi+ 3.200 ft 320° 320° 26 kt METAR EHMA 280725Z AUTO 32026KT 9999 FEW018 SCT022 BKN032 11/06 Q1019
8:55 am
M
52 °F 6¼ mi+ 2.100 ft 320° 320° 29 kt METAR EHMA 280655Z AUTO 32029KT 9999 FEW010 SCT018 BKN021 11/07 Q1019
8:25 am
M
50 °F 6¼ mi+ 2.100 ft 350° 350° 21 kt METAR EHMA 280625Z AUTO 35021KT 9999 FEW010 SCT018 BKN021 10/08 Q1019 REDZ
7:55 am
V
52 °F 6¼ mi+ 3.600 ft 330° 330° 28 kt METAR EHMA 280555Z AUTO 33028KT 9999 -DZ FEW016 SCT021 BKN036 11/06 Q1019
7:25 am
V
52 °F 6¼ mi+ 4.700 ft 320° 320° 32 kt METAR EHMA 280525Z AUTO 32032KT 9999 FEW018 SCT041 BKN047 11/07 Q1018
6:55 am
V
52 °F 6¼ mi+ 3.900 ft 320° 320° 31 kt METAR EHMA 280455Z AUTO 32031KT 9999 FEW020 SCT025 BKN039 11/07 Q1018
6:25 am
V
52 °F 6¼ mi+ 3.000 ft 320° 320° 33 kt METAR EHMA 280425Z AUTO 32033KT 9999 FEW022 SCT026 BKN030 11/06 Q1018
5:55 am
V
54 °F 6¼ mi+ - 310° 310° 31 kt METAR EHMA 280355Z AUTO 31031KT 9999 FEW023 SCT029 12/06 Q1018
5:25 am
V
52 °F 6¼ mi+ 4.400 ft 310° 310° 32 kt METAR EHMA 280325Z AUTO 31032KT 9999 FEW022 SCT026 BKN044 11/06 Q1018
4:55 am
V
54 °F 6¼ mi+ 3.200 ft 310° 310° 32 kt METAR EHMA 280255Z AUTO 31032KT 9999 FEW021 SCT024 BKN032 12/06 Q1018
4:25 am
M
54 °F 6¼ mi+ 2.400 ft 310° 310° 33 kt METAR EHMA 280225Z AUTO 31033KT 9999 SCT020 BKN024 BKN030 12/07 Q1017
3:55 am
M
54 °F 6¼ mi+ 2.900 ft 310° 310° 32 kt METAR EHMA 280155Z AUTO 31032KT 9999 FEW020 SCT025 BKN029 12/07 Q1017
3:25 am
M
54 °F 6¼ mi+ 2.700 ft 310° 310° 34 kt METAR EHMA 280125Z AUTO 31034KT 9999 SCT022 BKN027 BKN039 12/06 Q1018
2:55 am
V
54 °F 6¼ mi+ - 310° 310° 31 kt METAR EHMA 280055Z AUTO 31031KT 9999 FEW022 SCT027 12/07 Q1017
2:25 am
V
54 °F 6¼ mi+ - 300° 300° 31 kt METAR EHMA 280025Z AUTO 30031KT 9999 FEW021/// 12/06 Q1018
1:55 am
V
54 °F 6¼ mi+ 4.000 ft 310° 310° 32 kt METAR EHMA 272355Z AUTO 31032KT 9999 FEW020 SCT024 BKN040 12/06 Q1018
1:25 am
V
54 °F 6¼ mi+ 3.200 ft 310° 310° 30 kt METAR EHMA 272325Z AUTO 31030KT 9999 FEW019 SCT024 BKN032 12/07 Q1018
12:55 am
V
54 °F 6¼ mi+ 3.000 ft 300° 300° 31 kt METAR EHMA 272255Z AUTO 30031KT 9999 FEW019 SCT026 BKN030 12/07 Q1018
12:25 am
V
54 °F 6¼ mi+ 3.500 ft 300° 300° 28 kt METAR EHMA 272225Z AUTO 30028KT 9999 FEW019/// SCT026/// BKN035/// 12/08 Q1018

27. Mai 2022

Uhrzeit Code Wetter Temp. Sichtweite Wolkendecke Wind METAR/SPECI
11:55 pm
V
55 °F 6¼ mi+ 3.300 ft 290° 290° 27 kt METAR EHMA 272155Z AUTO 29027KT 9999 FEW018 SCT024 BKN033 13/08 Q1018
11:25 pm
V
55 °F 6¼ mi+ 4.400 ft 290° 290° 23 kt METAR EHMA 272125Z AUTO 29023KT 9999 FEW018 SCT027 BKN044 13/08 Q1019
10:55 pm
V
55 °F 6¼ mi+ - 290° 290° 27 kt METAR EHMA 272055Z AUTO 29027KT 9999 FEW020 13/08 Q1019
10:25 pm
V
55 °F 6¼ mi+ - 290° 290° 28 kt METAR EHMA 272025Z AUTO 29028KT 9999 FEW020 SCT026 13/08 Q1019
9:55 pm
M
55 °F 6¼ mi+ 2.800 ft 290° 290° 28 kt METAR EHMA 271955Z AUTO 29028KT 9999 FEW019 SCT024 BKN028 13/08 Q1018
9:25 pm
M
55 °F 6¼ mi+ 2.900 ft 290° 290° 26 kt METAR EHMA 271925Z AUTO 29026KT 9999 FEW019 SCT025 BKN029 13/08 Q1018
8:55 pm
M
55 °F 6¼ mi+ 2.800 ft 300° 300° 24 kt METAR EHMA 271855Z AUTO 30024KT 9999 FEW019 SCT024 BKN028 13/08 Q1019
8:25 pm
V
55 °F 6¼ mi+ - 300° 300° 24 kt METAR EHMA 271825Z AUTO 30024KT 9999 SCT022 SCT030 13/08 Q1019
7:55 pm
V
55 °F 6¼ mi+ - 290° 290° 29 kt METAR EHMA 271755Z AUTO 29029KT 9999 FEW021 13/08 Q1019
7:25 pm
V
55 °F 6¼ mi+ - 290° 290° 30 kt METAR EHMA 271725Z AUTO 29030KT 9999 FEW019 13/08 Q1019
6:55 pm
M
55 °F 6¼ mi+ 2.200 ft 290° 290° 30 kt METAR EHMA 271655Z AUTO 29030KT 9999 SCT019 BKN022 13/08 Q1018
6:25 pm
M
55 °F 6¼ mi+ 2.200 ft 290° 290° 25 kt METAR EHMA 271625Z AUTO 29025KT 9999 FEW019 BKN022 BKN028 13/08 Q1018
5:55 pm
V
54 °F 6¼ mi+ 3.600 ft 290° 290° 26 kt METAR EHMA 271555Z AUTO 29026KT 9999 FEW019 SCT026 BKN036 12/08 Q1018
5:25 pm
M
54 °F 6¼ mi+ 2.400 ft 300° 300° 26 kt METAR EHMA 271525Z AUTO 30026KT 9999 SCT018 BKN024 BKN034 12/08 Q1019
4:55 pm
M
54 °F 6¼ mi+ 2.500 ft 290° 290° 26 kt METAR EHMA 271455Z AUTO 29026KT 9999 SCT018 SCT022 BKN025 12/07 Q1019
4:25 pm
M
54 °F 6¼ mi+ 2.300 ft 290° 290° 25 kt METAR EHMA 271425Z AUTO 29025KT 9999 SCT018 BKN023 BKN027 12/07 Q1019
3:55 pm
M
54 °F 6¼ mi+ 2.100 ft 290° 290° 24 kt METAR EHMA 271355Z AUTO 29024KT 9999 SCT018 BKN021 BKN027 12/07 Q1019
3:25 pm
V
54 °F 6¼ mi+ 3.000 ft 290° 290° 23 kt METAR EHMA 271325Z AUTO 29023KT 9999 FEW018 SCT023 BKN030 12/08 Q1019
2:55 pm
V
54 °F 6¼ mi+ - 290° 290° 24 kt METAR EHMA 271255Z AUTO 29024KT 9999 FEW019 SCT028 12/07 Q1019
2:25 pm
V
54 °F 6¼ mi+ 3.600 ft 290° 290° 24 kt METAR EHMA 271225Z AUTO 29024KT 9999 FEW019 SCT022 BKN036 12/07 Q1018
1:55 pm
V
54 °F 6¼ mi+ 3.500 ft 290° 290° 25 kt METAR EHMA 271155Z AUTO 29025KT 9999 FEW020 SCT024 BKN035 12/07 Q1018
1:25 pm
V
54 °F 6¼ mi+ 3.000 ft 290° 290° 24 kt METAR EHMA 271125Z AUTO 29024KT 9999 FEW022 BKN030 BKN037 12/07 Q1018
12:55 pm
V
54 °F 6¼ mi+ 3.300 ft 290° 290° 23 kt METAR EHMA 271055Z AUTO 29023KT 9999 SCT022 SCT029 BKN033 12/06 Q1018
12:25 pm
M
54 °F 6¼ mi+ 2.900 ft 300° 300° 25 kt METAR EHMA 271025Z AUTO 30025KT 9999 FEW022 BKN029 BKN035 12/06 Q1018
11:55 am
V
54 °F 6¼ mi+ 3.200 ft 290° 290° 24 kt METAR EHMA 270955Z AUTO 29024KT 9999 SCT023 SCT027 BKN032 12/06 Q1018
11:25 am
M
54 °F 6¼ mi+ 2.600 ft 300° 300° 24 kt METAR EHMA 270925Z AUTO 30024KT 9999 SCT023 BKN026 BKN031 12/06 Q1018
10:55 am
M
54 °F 6¼ mi+ 2.800 ft 290° 290° 24 kt METAR EHMA 270855Z AUTO 29024KT 9999 SCT024 BKN028 BKN032 12/06 Q1017
10:25 am
M
54 °F 6¼ mi+ 2.800 ft 280° 280° 18 - 31 kt METAR EHMA 270825Z AUTO 28018G31KT 9999 SCT024 BKN028 BKN032 12/06 Q1017
9:55 am
V
54 °F 6¼ mi+ 3.300 ft 290° 290° 23 kt METAR EHMA 270755Z AUTO 29023KT 9999 SCT025 SCT029 BKN033 12/06 Q1017
9:25 am
V
54 °F 6¼ mi+ - 290° 290° 23 kt METAR EHMA 270725Z AUTO 29023KT 9999 FEW027 SCT033 12/06 Q1017
8:55 am
V
54 °F 6¼ mi+ - 300° 300° 24 kt METAR EHMA 270655Z AUTO 30024KT 9999 FEW028 12/06 Q1017
8:25 am
V
54 °F 6¼ mi+ - 290° 290° 28 kt METAR EHMA 270625Z AUTO 29028KT 9999 FEW030 12/05 Q1017
7:55 am
V
54 °F 6¼ mi+ - 280° 280° 23 kt METAR EHMA 270555Z AUTO 28023KT 9999 FEW030 12/05 Q1016
7:25 am
V
54 °F 6¼ mi+ - 280° 280° 24 kt METAR EHMA 270525Z AUTO 28024KT 9999 FEW029 SCT039 12/05 Q1016
6:55 am
V
55 °F 6¼ mi+ - 290° 290° 22 kt METAR EHMA 270455Z AUTO 29022KT 9999 FEW029 SCT035 13/06 Q1016
6:25 am
V
55 °F 6¼ mi+ - 290° 290° 25 kt METAR EHMA 270425Z AUTO 29025KT 9999 FEW034 SCT048 13/06 Q1016
5:55 am
V
55 °F 6¼ mi+ - 290° 290° 26 kt METAR EHMA 270355Z AUTO 29026KT 9999 FEW027 SCT034 13/05 Q1016
5:25 am
V
55 °F 6¼ mi+ - 290° 290° 23 kt METAR EHMA 270325Z AUTO 29023KT 9999 FEW026 13/06 Q1016
4:55 am
V
55 °F 6¼ mi+ - 290° 290° 20 kt METAR EHMA 270255Z AUTO 29020KT 9999 FEW024 13/07 Q1016
4:25 am
V
55 °F 6¼ mi+ - 290° 290° 18 kt METAR EHMA 270225Z AUTO 29018KT 9999 FEW024 13/07 Q1016
3:55 am
V
57 °F 6¼ mi+ - 290° 290° 21 kt METAR EHMA 270155Z AUTO 29021KT 9999 NSC 14/07 Q1016
3:25 am
V
57 °F 6¼ mi+ - 300° 300° 22 kt METAR EHMA 270125Z AUTO 30022KT 9999 FEW048 14/06 Q1016
2:55 am
V
57 °F 6¼ mi+ - 290° 290° 20 kt METAR EHMA 270055Z AUTO 29020KT 9999 NSC 14/09 Q1016
2:25 am
V
57 °F 6¼ mi+ - 300° 300° 22 kt METAR EHMA 270025Z AUTO 30022KT 9999 FEW045/// 14/10 Q1016
1:55 am
V
57 °F 6¼ mi+ - 290° 290° 17 kt METAR EHMA 262355Z AUTO 29017KT 9999 FEW045 14/11 Q1016
1:25 am
V
57 °F 6¼ mi+ - 280° 280° 18 kt METAR EHMA 262325Z AUTO 28018KT 9999 NSC 14/11 Q1016
12:55 am
V
57 °F 6¼ mi+ - 290° 290° 19 kt METAR EHMA 262255Z AUTO 29019KT 9999 NSC 14/12 Q1016
12:25 am
V
59 °F 6¼ mi+ - 280° 280° 21 kt METAR EHMA 262225Z AUTO 28021KT 9999 NSC 15/12 Q1016

26. Mai 2022

Uhrzeit Code Wetter Temp. Sichtweite Wolkendecke Wind METAR/SPECI
11:55 pm
V
59 °F 6¼ mi+ - 270° 270° 21 kt METAR EHMA 262155Z AUTO 27021KT 9999 NSC 15/12 Q1016
11:25 pm
V
59 °F 6¼ mi+ - 270° 270° 22 kt METAR EHMA 262125Z AUTO 27022KT 9999 NSC 15/12 Q1016
10:55 pm
V
59 °F 6¼ mi+ - 260° 260° 22 kt METAR EHMA 262055Z AUTO 26022KT 9999 FEW031 SCT042 15/13 Q1016
10:25 pm
V
59 °F 6¼ mi+ 3.700 ft 250° 250° 23 kt METAR EHMA 262025Z AUTO 25023KT 9999 FEW031 BKN037 BKN042 15/13 Q1016
9:55 pm
V
59 °F 6¼ mi+ 3.900 ft 260° 260° 24 kt METAR EHMA 261955Z AUTO 26024KT 9999 -RA FEW015CB SCT030 BKN039 15/13 Q1015 RERA REDZ
9:25 pm
M
59 °F 6¼ mi+ 2.700 ft 250° 250° 24 kt METAR EHMA 261925Z AUTO 25024KT 9999 FEW024 BKN027 BKN032 15/13 Q1015
8:55 pm
V
59 °F 6¼ mi+ 3.200 ft 250° 250° 23 kt METAR EHMA 261855Z AUTO 25023KT 9999 FEW008 SCT026 BKN032 15/13 Q1015
8:25 pm
V
59 °F 6¼ mi+ 3.200 ft 240° 240° 23 kt METAR EHMA 261825Z AUTO 24023KT 9999 FEW005 SCT008 BKN032 15/13 Q1015
7:55 pm
M
57 °F 6¼ mi+ 1.300 ft 240° 240° 24 kt METAR EHMA 261755Z AUTO 24024KT 9999 FEW005 SCT011 BKN013 14/13 Q1016
7:25 pm
M
59 °F 6¼ mi+ 2.000 ft 240° 240° 23 kt METAR EHMA 261725Z AUTO 24023KT 9999 FEW009 SCT015 BKN020 15/12 Q1016
6:55 pm
M
57 °F 6¼ mi+ 2.000 ft 250° 250° 23 kt METAR EHMA 261655Z AUTO 25023KT 9999 DZRA FEW012 SCT016 BKN020 14/12 Q1017
6:25 pm
V
59 °F 6¼ mi+ 3.100 ft 240° 240° 22 kt METAR EHMA 261625Z AUTO 24022KT 9999 FEW018 SCT022 BKN031 15/11 Q1017
5:55 pm
V
59 °F 6¼ mi+ 4.100 ft 250° 250° 19 kt METAR EHMA 261555Z AUTO 25019KT 9999 FEW019 BKN041 OVC047 15/10 Q1017
5:25 pm
V
57 °F 6¼ mi+ 4.700 ft 250° 250° 20 kt METAR EHMA 261525Z AUTO 25020KT 9999 FEW016 SCT043 OVC047 14/10 Q1018
4:55 pm
V
57 °F 6¼ mi+ 4.700 ft 260° 260° 20 kt METAR EHMA 261455Z AUTO 26020KT 9999 FEW016 SCT043 BKN047 14/10 Q1018
Ältere Daten

Laden Sie unsere App herunter

Einfacher Zugriff auf das gesamte Flugwetter auf Ihrem Mobiltelefon und Tablet.
Mit vielen Funktionen, die auf der Website nicht verfügbar sind, wie Offline-Unterstützung und eine persönliche Flughafenliste.

Wir und Dritte verfolgen dein Internetverhalten auf unserer Website mit Cookies. Wenn du fortfährst, gehen wir davon aus, dass du mit unserer Cookie-Richtlinie einverstanden bist. Mehr erfahren